Terminal Aerodrome Forecast
Issued by NWS

Home | Current Version | Previous Version | Text Only | Print | Product List | Glossary On
Versions: 1 2 3 4 5 6 7 8 9 10 11 12 13
699
FTUS41 KPBZ 222331
TAFBVI
TAF
KBVI 222331Z 2300/2324 16007KT P6SM -SHRA OVC060 WS020/19040KT
     FM230300 17010KT P6SM OVC050 WS020/19040KT
     FM230700 17009KT 4SM -SHRA OVC030 WS020/20040KT
     FM231300 23014G29KT P6SM VCSH OVC035
     FM231600 23014G29KT P6SM VCSH OVC030
      AMD NOT SKED 2302/2312=

USA.gov is the U.S. government's official web portal to all federal, state and local government web resources and services.